createdAt,value
2018-11-11T00:02:06.140Z,28.07
2018-11-11T00:04:33.410Z,29.17
2018-11-11T00:07:00.847Z,32.07
2018-11-11T00:09:28.077Z,26.43
2018-11-11T00:11:55.433Z,27.70
2018-11-11T00:14:22.699Z,26.10
2018-11-11T00:16:50.072Z,24.93
2018-11-11T00:19:23.761Z,25.03
2018-11-11T00:21:51.868Z,29.03
2018-11-11T00:24:19.101Z,27.30
2018-11-11T00:26:46.385Z,26.50
2018-11-11T00:29:13.685Z,27.27
2018-11-11T00:31:40.930Z,27.50
2018-11-11T00:34:08.388Z,26.77
2018-11-11T00:36:35.607Z,27.13
2018-11-11T00:39:03.867Z,29.47
2018-11-11T00:41:31.373Z,28.40
2018-11-11T00:43:58.639Z,26.93
2018-11-11T00:46:26.008Z,25.73
2018-11-11T00:48:53.244Z,26.27
2018-11-11T00:51:20.614Z,24.80
2018-11-11T00:53:47.863Z,27.77
2018-11-11T00:56:15.143Z,26.50
2018-11-11T00:58:42.446Z,26.03
2018-11-11T01:01:09.705Z,25.97
2018-11-11T01:03:36.952Z,28.10
2018-11-11T01:06:04.295Z,26.17
2018-11-11T01:08:31.683Z,26.27
2018-11-11T01:10:58.956Z,26.00
2018-11-11T01:13:26.228Z,26.87
2018-11-11T01:15:53.560Z,26.40
2018-11-11T01:18:20.799Z,25.67
2018-11-11T01:20:48.047Z,26.70
2018-11-11T01:23:15.308Z,27.00
2018-11-11T01:25:42.520Z,24.80
2018-11-11T01:28:09.849Z,28.40
2018-11-11T01:30:37.124Z,27.43
2018-11-11T01:33:04.377Z,26.13
2018-11-11T01:35:31.605Z,29.20
2018-11-11T01:37:58.828Z,26.63
2018-11-11T01:40:26.059Z,26.13
2018-11-11T01:42:53.380Z,25.40
2018-11-11T01:45:20.628Z,24.47
2018-11-11T01:47:49.215Z,25.17
2018-11-11T01:50:16.584Z,25.97
2018-11-11T01:52:43.799Z,24.50
2018-11-11T01:55:11.713Z,24.50
2018-11-11T01:57:39.212Z,26.50
2018-11-11T02:00:08.914Z,25.90
2018-11-11T02:02:36.150Z,22.60
2018-11-11T02:05:04.286Z,25.87
2018-11-11T02:07:31.486Z,25.10
2018-11-11T02:09:58.783Z,25.13
2018-11-11T02:12:25.980Z,24.03
2018-11-11T02:14:53.342Z,26.63
2018-11-11T02:17:20.596Z,26.97
2018-11-11T02:19:48.352Z,27.10
2018-11-11T02:22:15.528Z,27.67
2018-11-11T02:24:42.781Z,27.90
2018-11-11T02:27:10.055Z,27.40
2018-11-11T02:29:37.219Z,25.97
2018-11-11T02:32:04.664Z,26.37
2018-11-11T02:34:31.808Z,26.70
2018-11-11T02:36:59.096Z,30.47
2018-11-11T02:39:26.295Z,29.33
2018-11-11T02:41:53.494Z,27.43
2018-11-11T02:44:20.743Z,29.40
2018-11-11T02:46:47.956Z,28.13
2018-11-11T02:49:15.230Z,27.87
2018-11-11T02:51:42.432Z,28.20
2018-11-11T02:54:09.662Z,28.40
2018-11-11T02:56:36.917Z,25.63
2018-11-11T02:59:04.178Z,30.87
2018-11-11T03:01:31.408Z,27.30
2018-11-11T03:03:58.685Z,28.07
2018-11-11T03:06:25.926Z,30.20
2018-11-11T03:08:53.170Z,29.90
2018-11-11T03:11:20.400Z,30.60
2018-11-11T03:13:47.583Z,29.40
2018-11-11T03:16:14.819Z,31.47
2018-11-11T03:18:42.048Z,32.73
2018-11-11T03:21:09.247Z,31.97
2018-11-11T03:23:36.436Z,33.10
2018-11-11T03:26:10.363Z,30.57
2018-11-11T03:28:37.627Z,32.87
2018-11-11T03:31:04.826Z,31.20
2018-11-11T03:33:32.060Z,32.27
2018-11-11T03:35:59.286Z,31.83
2018-11-11T03:38:26.472Z,35.40
2018-11-11T03:40:53.769Z,31.70
2018-11-11T03:43:21.000Z,30.43
2018-11-11T03:45:48.221Z,28.80
2018-11-11T03:48:15.404Z,30.00
2018-11-11T03:50:42.629Z,29.83
2018-11-11T03:53:09.853Z,28.43
2018-11-11T03:55:37.090Z,27.47
2018-11-11T03:58:04.461Z,27.70
2018-11-11T04:00:31.682Z,27.90
2018-11-11T04:02:58.849Z,27.93
2018-11-11T04:05:26.073Z,26.00
2018-11-11T04:07:53.269Z,28.37
2018-11-11T04:10:20.526Z,29.43
2018-11-11T04:12:48.312Z,26.97
2018-11-11T04:15:16.770Z,30.03
2018-11-11T04:17:43.985Z,29.80
2018-11-11T04:20:12.727Z,35.90
2018-11-11T04:22:39.914Z,33.50
2018-11-11T04:25:07.368Z,31.63
2018-11-11T04:27:34.594Z,28.10
2018-11-11T04:30:02.453Z,26.97
2018-11-11T04:32:29.632Z,30.57
2018-11-11T04:34:57.323Z,28.43
2018-11-11T04:37:24.550Z,27.20
2018-11-11T04:39:51.741Z,29.33
2018-11-11T04:42:18.998Z,30.77
2018-11-11T04:44:46.255Z,29.50
2018-11-11T04:47:13.483Z,27.90
2018-11-11T04:49:40.667Z,27.23
2018-11-11T04:52:07.952Z,25.83
2018-11-11T04:54:35.158Z,24.00
2018-11-11T04:57:02.454Z,25.73
2018-11-11T04:59:29.656Z,27.30
2018-11-11T05:01:56.889Z,27.93
2018-11-11T05:04:24.105Z,28.07
2018-11-11T05:06:51.276Z,27.90
2018-11-11T05:09:18.573Z,27.73
2018-11-11T05:11:45.885Z,30.77
2018-11-11T05:14:13.668Z,27.20
2018-11-11T05:16:40.895Z,29.27
2018-11-11T05:19:09.289Z,27.47
2018-11-11T05:21:36.612Z,28.47
2018-11-11T05:24:04.430Z,23.70
2018-11-11T05:26:31.681Z,35.23
2018-11-11T05:28:58.874Z,36.67
2018-11-11T05:31:26.068Z,30.43
2018-11-11T05:33:53.253Z,29.80
2018-11-11T05:36:20.435Z,27.10
2018-11-11T05:38:47.657Z,25.90
2018-11-11T05:41:14.780Z,26.30
2018-11-11T05:43:42.081Z,26.77
2018-11-11T05:46:09.289Z,25.47
2018-11-11T05:48:36.472Z,27.83
2018-11-11T05:51:03.892Z,26.13
2018-11-11T05:53:31.084Z,26.50
2018-11-11T05:55:58.299Z,27.30
2018-11-11T05:58:25.488Z,27.97
2018-11-11T06:00:52.732Z,28.50
2018-11-11T06:03:20.012Z,28.57
2018-11-11T06:05:47.224Z,27.57
2018-11-11T06:08:14.490Z,27.87
2018-11-11T06:10:41.688Z,29.40
2018-11-11T06:13:08.870Z,29.30
2018-11-11T06:15:36.037Z,29.63
2018-11-11T06:18:03.276Z,31.43
2018-11-11T06:20:30.427Z,29.60
2018-11-11T06:22:57.641Z,30.10
2018-11-11T06:25:24.828Z,31.07
2018-11-11T06:27:52.039Z,30.50
2018-11-11T06:30:19.288Z,30.40
2018-11-11T06:32:46.500Z,33.50
2018-11-11T06:35:13.734Z,35.60
2018-11-11T06:37:41.023Z,33.73
2018-11-11T06:40:09.569Z,36.57
2018-11-11T06:42:37.031Z,37.57
2018-11-11T06:45:06.365Z,37.90
2018-11-11T06:47:33.556Z,36.57
2018-11-11T06:50:00.781Z,36.00
2018-11-11T06:52:27.946Z,33.30
2018-11-11T06:54:55.153Z,33.73
2018-11-11T06:57:22.376Z,32.90
2018-11-11T06:59:49.582Z,34.10
2018-11-11T07:02:16.821Z,31.20
2018-11-11T07:04:43.994Z,31.17
2018-11-11T07:07:11.181Z,33.63
2018-11-11T07:09:38.408Z,33.53
2018-11-11T07:12:05.660Z,30.97
2018-11-11T07:14:32.847Z,32.80
2018-11-11T07:17:00.072Z,31.77
2018-11-11T07:19:27.252Z,30.37
2018-11-11T07:21:54.467Z,31.37
2018-11-11T07:24:21.728Z,33.63
2018-11-11T07:26:48.923Z,33.60
2018-11-11T07:29:16.105Z,30.40
2018-11-11T07:31:43.296Z,33.93
2018-11-11T07:34:10.457Z,30.73
2018-11-11T07:36:37.661Z,32.23
2018-11-11T07:39:08.609Z,32.10
2018-11-11T07:41:35.861Z,32.20
2018-11-11T07:44:03.115Z,32.10
2018-11-11T07:46:30.360Z,33.03
2018-11-11T07:48:57.520Z,33.10
2018-11-11T07:51:24.807Z,29.57
2018-11-11T07:53:52.073Z,29.60
2018-11-11T07:56:19.303Z,28.90
2018-11-11T07:58:46.564Z,29.07
2018-11-11T08:01:13.799Z,28.60
2018-11-11T08:03:41.030Z,31.87
2018-11-11T08:06:08.212Z,29.60
2018-11-11T08:08:35.489Z,28.87
2018-11-11T08:11:14.208Z,30.37
2018-11-11T08:13:41.440Z,35.10
2018-11-11T08:16:08.695Z,30.40
2018-11-11T08:18:35.956Z,31.87
2018-11-11T08:21:03.179Z,27.23
2018-11-11T08:23:30.440Z,30.00
2018-11-11T08:25:57.652Z,29.00
2018-11-11T08:28:24.848Z,27.33
2018-11-11T08:30:52.045Z,60.03
2018-11-11T08:33:19.193Z,29.60
2018-11-11T08:35:46.362Z,23.70
2018-11-11T08:38:13.552Z,27.53
2018-11-11T08:40:40.826Z,26.57
2018-11-11T08:43:07.936Z,25.37
2018-11-11T08:45:35.097Z,23.70
2018-11-11T08:48:02.440Z,27.30
2018-11-11T08:50:29.584Z,24.87
2018-11-11T08:52:56.712Z,25.27
2018-11-11T08:55:23.932Z,26.70
2018-11-11T08:57:51.216Z,25.93
2018-11-11T09:00:18.460Z,26.07
2018-11-11T09:02:45.653Z,24.83
2018-11-11T09:05:12.860Z,26.57
2018-11-11T09:07:40.074Z,25.90
2018-11-11T09:10:08.585Z,24.80
2018-11-11T09:12:35.744Z,25.80
2018-11-11T09:15:03.672Z,27.70
2018-11-11T09:17:31.210Z,25.70
2018-11-11T09:19:58.403Z,25.23
2018-11-11T09:22:25.632Z,24.43
2018-11-11T09:24:52.844Z,22.50
2018-11-11T09:27:20.063Z,22.73
2018-11-11T09:29:47.356Z,22.00
2018-11-11T09:32:14.576Z,21.20
2018-11-11T09:34:41.810Z,22.70
2018-11-11T09:37:09.244Z,22.43
2018-11-11T09:39:36.523Z,23.37
2018-11-11T09:42:04.614Z,21.93
2018-11-11T09:44:31.873Z,21.23
2018-11-11T09:46:59.157Z,19.63
2018-11-11T09:49:26.412Z,18.70
2018-11-11T09:51:54.023Z,21.60
2018-11-11T09:54:21.288Z,21.40
2018-11-11T09:56:48.447Z,19.20
2018-11-11T09:59:15.749Z,22.80
2018-11-11T10:01:43.013Z,19.33
2018-11-11T10:04:15.900Z,22.03
2018-11-11T10:07:52.114Z,19.33
2018-11-11T10:10:24.416Z,18.17
2018-11-11T10:13:01.928Z,17.33
2018-11-11T10:15:37.135Z,16.80
2018-11-11T10:18:12.607Z,18.10
2018-11-11T10:20:47.669Z,17.77
2018-11-11T10:23:18.701Z,17.17
2018-11-11T10:25:54.662Z,18.37
2018-11-11T10:28:30.272Z,21.77
2018-11-11T10:31:35.371Z,17.50
2018-11-11T10:34:09.952Z,17.00
2018-11-11T10:36:46.046Z,17.90
2018-11-11T10:39:17.875Z,17.67
2018-11-11T10:41:54.261Z,17.27
2018-11-11T10:44:40.816Z,16.47
2018-11-11T10:47:12.645Z,18.97
2018-11-11T10:49:43.052Z,15.73
2018-11-11T10:52:10.308Z,14.80
2018-11-11T10:54:37.980Z,17.53
2018-11-11T10:57:05.295Z,13.10
2018-11-11T10:59:32.524Z,13.57
2018-11-11T11:02:05.424Z,13.73
2018-11-11T11:04:32.654Z,13.33
2018-11-11T11:07:05.804Z,12.80
2018-11-11T11:09:33.021Z,11.53
2018-11-11T11:12:00.258Z,13.50
2018-11-11T11:14:27.457Z,26.50
2018-11-11T11:16:54.689Z,17.60
2018-11-11T11:19:22.335Z,16.53
2018-11-11T11:21:49.513Z,13.47
2018-11-11T11:24:16.749Z,14.73
2018-11-11T11:26:43.900Z,12.37
2018-11-11T11:29:11.133Z,15.03
2018-11-11T11:31:38.441Z,14.00
2018-11-11T11:34:05.784Z,21.50
2018-11-11T11:36:33.050Z,29.20
2018-11-11T11:39:00.277Z,33.13
2018-11-11T11:41:27.641Z,15.10
2018-11-11T11:43:54.769Z,18.47
2018-11-11T11:46:22.054Z,18.97
2018-11-11T11:48:49.327Z,14.40
2018-11-11T11:51:16.589Z,13.70
2018-11-11T11:53:43.853Z,16.57
2018-11-11T11:56:11.076Z,13.87
2018-11-11T11:58:38.287Z,12.13
2018-11-11T12:01:05.518Z,16.00
2018-11-11T12:03:32.727Z,15.50
2018-11-11T12:05:59.892Z,14.77
2018-11-11T12:08:27.073Z,14.03
2018-11-11T12:10:54.338Z,14.17
2018-11-11T12:13:21.479Z,14.50
2018-11-11T12:15:48.735Z,13.80
2018-11-11T12:18:15.985Z,15.13
2018-11-11T12:20:43.188Z,18.30
2018-11-11T12:23:10.742Z,16.07
2018-11-11T12:25:38.672Z,14.47
2018-11-11T12:28:05.964Z,16.00
2018-11-11T12:30:33.314Z,15.63
2018-11-11T12:33:00.603Z,18.53
2018-11-11T12:35:27.809Z,14.83
2018-11-11T12:37:55.023Z,17.60
2018-11-11T12:40:22.344Z,15.80
2018-11-11T12:42:49.478Z,16.93
2018-11-11T12:45:16.699Z,16.83
2018-11-11T12:47:43.948Z,14.90
2018-11-11T12:50:12.170Z,17.60
2018-11-11T12:52:39.441Z,17.23
2018-11-11T12:55:07.053Z,19.00
2018-11-11T12:57:34.332Z,18.23
2018-11-11T13:00:01.566Z,17.67
2018-11-11T13:02:28.815Z,16.53
2018-11-11T13:04:56.436Z,17.30
2018-11-11T13:07:23.590Z,18.57
2018-11-11T13:09:50.888Z,17.67
2018-11-11T13:12:18.352Z,17.17
2018-11-11T13:14:45.466Z,16.83
2018-11-11T13:17:13.072Z,18.73
2018-11-11T13:19:40.404Z,18.33
2018-11-11T13:22:07.771Z,18.57
2018-11-11T13:24:35.008Z,17.97
2018-11-11T13:27:02.252Z,19.20
2018-11-11T13:29:29.483Z,21.17
2018-11-11T13:31:56.750Z,18.80
2018-11-11T13:34:23.913Z,17.50
2018-11-11T13:36:51.174Z,17.63
2018-11-11T13:39:18.426Z,19.83
2018-11-11T13:41:45.830Z,19.53
2018-11-11T13:44:13.124Z,18.90
2018-11-11T13:46:40.569Z,18.77
2018-11-11T13:49:07.684Z,18.90
2018-11-11T13:51:41.824Z,19.37
2018-11-11T13:54:09.210Z,20.80
2018-11-11T13:56:36.641Z,18.73
2018-11-11T13:59:03.946Z,20.23
2018-11-11T14:01:31.211Z,20.40
2018-11-11T14:03:58.404Z,23.37
2018-11-11T14:06:25.667Z,18.60
2018-11-11T14:08:52.897Z,20.47
2018-11-11T14:11:20.124Z,18.80
2018-11-11T14:13:47.425Z,20.53
2018-11-11T14:16:14.636Z,19.90
2018-11-11T14:18:42.049Z,21.13
2018-11-11T14:21:09.818Z,25.93
2018-11-11T14:23:37.089Z,23.20
2018-11-11T14:26:04.467Z,23.13
2018-11-11T14:28:31.644Z,23.17
2018-11-11T14:30:58.813Z,25.80
2018-11-11T14:33:26.092Z,27.73
2018-11-11T14:35:53.414Z,33.03
2018-11-11T14:38:20.647Z,24.63
2018-11-11T14:40:47.759Z,24.77
2018-11-11T14:43:14.991Z,22.63
2018-11-11T14:45:42.173Z,23.40
2018-11-11T14:48:09.397Z,24.67
2018-11-11T14:50:36.618Z,24.97
2018-11-11T14:53:04.256Z,26.00
2018-11-11T14:55:31.455Z,24.20
2018-11-11T14:57:59.550Z,23.53
2018-11-11T15:00:29.036Z,25.23
2018-11-11T15:03:00.015Z,22.53
2018-11-11T15:05:27.276Z,24.80
2018-11-11T15:07:54.506Z,24.93
2018-11-11T15:10:21.755Z,24.10
2018-11-11T15:12:49.140Z,24.67
2018-11-11T15:15:17.788Z,24.90
2018-11-11T15:17:45.663Z,27.97
2018-11-11T15:20:14.198Z,28.80
2018-11-11T15:22:41.678Z,27.97
2018-11-11T15:25:11.305Z,26.27
2018-11-11T15:27:38.972Z,27.13
2018-11-11T15:30:08.886Z,23.87
2018-11-11T15:32:36.116Z,25.30
2018-11-11T15:35:04.054Z,25.10
2018-11-11T15:37:31.312Z,25.77
2018-11-11T15:39:58.520Z,26.20
2018-11-11T15:42:25.882Z,25.73
2018-11-11T15:44:53.087Z,25.67
2018-11-11T15:47:20.332Z,24.43
2018-11-11T15:49:48.263Z,25.03
2018-11-11T15:52:16.578Z,24.60
2018-11-11T15:54:43.776Z,23.90
2018-11-11T15:57:11.189Z,25.50
2018-11-11T15:59:38.450Z,25.43
2018-11-11T16:02:06.297Z,27.13
2018-11-11T16:04:50.830Z,26.93
2018-11-11T16:07:22.978Z,28.50
2018-11-11T16:09:54.521Z,28.43
2018-11-11T16:12:25.909Z,26.50
2018-11-11T16:14:57.103Z,28.60
2018-11-11T16:17:28.894Z,25.53
2018-11-11T16:20:00.709Z,27.10
2018-11-11T16:22:32.180Z,25.60
2018-11-11T16:25:04.780Z,27.40
2018-11-11T16:27:33.246Z,26.10
2018-11-11T16:30:06.633Z,26.00
2018-11-11T16:32:36.275Z,27.80
2018-11-11T16:47:57.030Z,25.67
2018-11-11T16:50:28.196Z,23.83
2018-11-11T16:52:57.337Z,29.10
2018-11-11T16:55:26.206Z,28.53
2018-11-11T16:57:58.193Z,26.10
2018-11-11T17:00:27.159Z,27.67
2018-11-11T17:02:56.530Z,25.17
2018-11-11T17:05:31.012Z,26.20
2018-11-11T17:07:58.677Z,30.10
2018-11-11T17:10:27.529Z,30.97
2018-11-11T17:12:56.378Z,29.70
2018-11-11T17:15:29.353Z,29.10
2018-11-11T17:17:57.517Z,30.43
2018-11-11T17:20:29.393Z,29.33
2018-11-11T17:23:02.789Z,27.50
2018-11-11T17:25:32.610Z,29.50
2018-11-11T17:28:00.344Z,26.80
2018-11-11T17:30:29.415Z,29.50
2018-11-11T17:33:03.314Z,27.23
2018-11-11T17:35:31.172Z,27.20
2018-11-11T17:38:00.502Z,28.97
2018-11-11T17:40:30.055Z,30.40
2018-11-11T17:42:58.337Z,28.63
2018-11-11T17:45:26.163Z,29.50
2018-11-11T17:47:54.524Z,28.53
2018-11-11T17:50:30.110Z,28.00
2018-11-11T17:53:02.223Z,28.30
2018-11-11T17:55:34.650Z,29.27
2018-11-11T17:58:04.429Z,32.43
2018-11-11T18:00:32.386Z,30.60
2018-11-11T18:03:02.788Z,32.60
2018-11-11T18:05:32.491Z,35.67
2018-11-11T18:08:00.451Z,33.80
2018-11-11T18:10:32.682Z,29.00
2018-11-11T18:13:00.079Z,31.70
2018-11-11T18:15:28.953Z,35.07
2018-11-11T18:17:56.490Z,30.43
2018-11-11T18:20:28.185Z,30.50
2018-11-11T18:22:56.734Z,31.60
2018-11-11T18:25:24.218Z,30.03
2018-11-11T18:27:51.805Z,30.00
2018-11-11T18:30:26.475Z,32.20
2018-11-11T18:32:54.866Z,29.87
2018-11-11T18:35:22.617Z,31.97
2018-11-11T18:37:50.293Z,33.70
2018-11-11T18:40:19.425Z,32.53
2018-11-11T18:42:46.962Z,39.90
2018-11-11T18:45:16.548Z,40.80
2018-11-11T18:47:44.757Z,42.80
2018-11-11T18:50:18.143Z,40.30
2018-11-11T18:52:45.856Z,38.37
2018-11-11T18:55:14.346Z,35.80
2018-11-11T18:57:42.256Z,35.37
2018-11-11T19:00:12.314Z,33.70
2018-11-11T19:02:40.420Z,36.50
2018-11-11T19:05:09.805Z,39.23
2018-11-11T19:07:37.767Z,35.80
2018-11-11T19:10:06.788Z,37.63
2018-11-11T19:12:36.177Z,34.43
2018-11-11T19:15:04.538Z,32.47
2018-11-11T19:17:33.673Z,31.47
2018-11-11T19:20:01.292Z,30.77
2018-11-11T19:22:29.113Z,30.53
2018-11-11T19:24:56.655Z,33.03
2018-11-11T19:27:24.106Z,32.07
2018-11-11T19:29:51.956Z,35.80
2018-11-11T19:32:20.435Z,31.67
2018-11-11T19:34:48.664Z,31.27
2018-11-11T19:37:16.822Z,29.67
2018-11-11T19:39:44.254Z,34.23
2018-11-11T19:42:11.763Z,34.07
2018-11-11T19:44:39.247Z,33.27
2018-11-11T19:47:06.993Z,32.90
2018-11-11T19:49:34.728Z,31.73
2018-11-11T19:52:02.235Z,32.10
2018-11-11T19:54:29.955Z,29.97
2018-11-11T19:56:57.459Z,30.10
2018-11-11T19:59:24.997Z,33.50
2018-11-11T20:01:52.779Z,31.03
2018-11-11T20:04:20.490Z,30.70
2018-11-11T20:06:48.069Z,36.43
2018-11-11T20:09:15.810Z,31.40
2018-11-11T20:11:57.435Z,33.97
2018-11-11T20:14:27.284Z,39.50
2018-11-11T20:16:55.457Z,36.17
2018-11-11T20:19:23.240Z,35.80
2018-11-11T20:21:52.256Z,32.80
2018-11-11T20:24:21.135Z,36.63
2018-11-11T20:26:49.790Z,33.37
2018-11-11T20:29:20.699Z,32.97
2018-11-11T20:31:48.486Z,34.60
2018-11-11T20:34:16.212Z,32.87
2018-11-11T20:36:44.964Z,33.37
2018-11-11T20:39:13.243Z,32.60
2018-11-11T20:41:41.141Z,27.90
2018-11-11T20:44:10.798Z,30.20
2018-11-11T20:46:40.595Z,28.30
2018-11-11T20:49:08.528Z,29.23
2018-11-11T20:51:36.326Z,28.30
2018-11-11T20:54:04.597Z,30.23
2018-11-11T20:56:32.345Z,30.80
2018-11-11T20:59:00.170Z,32.13
2018-11-11T21:01:28.050Z,28.33
2018-11-11T21:03:56.057Z,32.03
2018-11-11T21:06:23.851Z,31.70
2018-11-11T21:08:51.869Z,31.27
2018-11-11T21:11:20.602Z,29.67
2018-11-11T21:13:50.672Z,28.00
2018-11-11T21:16:18.397Z,30.80
2018-11-11T21:18:49.730Z,29.80
2018-11-11T21:21:17.517Z,28.90
2018-11-11T21:23:47.338Z,28.10
2018-11-11T21:26:15.274Z,28.00
2018-11-11T21:28:43.688Z,29.77
2018-11-11T21:31:12.523Z,28.90
2018-11-11T21:33:41.068Z,29.87
2018-11-11T21:36:09.208Z,28.47
2018-11-11T21:38:36.988Z,29.97
2018-11-11T21:41:05.500Z,28.43
2018-11-11T21:43:33.326Z,31.90
2018-11-11T21:46:01.148Z,30.43
2018-11-11T21:48:28.915Z,27.93
2018-11-11T21:50:57.942Z,27.67
2018-11-11T21:54:35.049Z,29.20
2018-11-11T21:57:59.669Z,28.77
2018-11-11T22:03:20.473Z,30.47
2018-11-11T22:06:16.220Z,31.67
2018-11-11T22:08:44.241Z,32.00
2018-11-11T22:11:13.852Z,29.60
2018-11-11T22:13:42.701Z,30.53
2018-11-11T22:16:10.782Z,32.40
2018-11-11T22:18:38.637Z,30.63
2018-11-11T22:21:09.146Z,32.03
2018-11-11T22:24:19.801Z,31.50
2018-11-11T22:26:47.717Z,29.03
2018-11-11T22:29:15.942Z,31.40
2018-11-11T22:31:43.632Z,31.43
2018-11-11T22:34:11.572Z,29.90
2018-11-11T22:36:39.387Z,30.63
2018-11-11T22:39:08.260Z,30.00
2018-11-11T22:41:36.870Z,31.20
2018-11-11T22:44:04.729Z,41.13
2018-11-11T22:46:32.645Z,30.20
2018-11-11T22:49:01.114Z,29.93
2018-11-11T22:51:28.857Z,30.27
2018-11-11T22:53:56.554Z,31.20
2018-11-11T22:56:24.149Z,29.60
2018-11-11T22:58:52.033Z,29.23
2018-11-11T23:01:21.233Z,28.87
2018-11-11T23:03:49.641Z,29.77
2018-11-11T23:06:17.519Z,31.90
2018-11-11T23:08:45.254Z,29.07
2018-11-11T23:11:13.109Z,27.80
2018-11-11T23:13:40.808Z,30.07
2018-11-11T23:16:08.687Z,31.17
2018-11-11T23:18:37.006Z,29.77
2018-11-11T23:21:04.677Z,31.37
2018-11-11T23:23:32.507Z,29.17
2018-11-11T23:26:00.308Z,31.37
2018-11-11T23:28:28.026Z,29.70
2018-11-11T23:30:55.821Z,28.97
2018-11-11T23:33:23.544Z,26.57
2018-11-11T23:35:51.159Z,33.47
2018-11-11T23:38:18.925Z,31.83
2018-11-11T23:40:46.411Z,31.27
2018-11-11T23:43:13.985Z,29.67
2018-11-11T23:45:41.599Z,30.40
2018-11-11T23:48:09.264Z,29.40
2018-11-11T23:50:37.078Z,30.53
2018-11-11T23:53:04.627Z,33.50
2018-11-11T23:55:32.063Z,32.13
2018-11-11T23:57:59.444Z,33.03
